Terminal Aerodrome Forecast
Issued by NWS Grand Forks, ND

Home | Current Version | Previous Version | Text Only | Print | Product List | Glossary On
Versions: 1 2 3 4 5 6 7 8 9 10 11 12 13 14 15 16 17 18 19 20
037
FTUS43 KFGF 131120
TAFGFK
TAF
KGFK 131120Z 1312/1412 34023G33KT 3SM -FZDZSN OVC015
     FM131700 33024G37KT P6SM OVC015
     FM132200 35016G24KT P6SM BKN015
     FM140000 35011KT P6SM BKN025=

USA.gov is the U.S. government's official web portal to all federal, state and local government web resources and services.